Terminal Aerodrome Forecast
Issued by NWS

Home | Current Version | Previous Version | Text Only | Print | Product List | Glossary On
Versions: 1 2 3 4 5 6 7 8 9 10 11 12 13 14 15 16 17 18 19 20 21 22 23 24 25 26 27 28 29 30 31 32 33 34 35 36 37 38 39 40
000
FTAK31 PANC 111737
TAFAEN
TAF
PAEN 111737Z 1118/1218 16012G20KT P6SM VCSH BKN060
     FM112200 14007KT P6SM SCT060 BKN120
     FM120300 05007KT P6SM BKN100
     FM121200 03012KT P6SM BKN060=

USA.gov is the U.S. government's official web portal to all federal, state and local government web resources and services.